Time,TemperatureF,DewpointF,PressureIn,WindDirection,WindDirectionDegrees,WindSpeedMPH,WindSpeedGustMPH,Humidity,HourlyPrecipIn,Conditions,Clouds,dailyrainin,SolarRadiationWatts/m^2,SoftwareType,DateUTC
2013-05-22 00:11:00,74.4,72.0,29.96,SE,144,0.0,1.0,92,0.00,,,0.00,0,weatherlink.com 1.10,2013-05-22 04:11:00,
2013-05-22 00:26:00,74.2,72.0,29.96,SE,144,0.0,1.0,92,0.00,,,0.00,0,weatherlink.com 1.10,2013-05-22 04:26:00,
2013-05-22 00:41:00,73.9,72.0,29.95,SE,144,0.0,0.0,92,0.00,,,0.00,0,weatherlink.com 1.10,2013-05-22 04:41:00,
2013-05-22 00:56:00,73.4,71.0,29.95,SE,144,0.0,0.0,92,0.00,,,0.00,0,weatherlink.com 1.10,2013-05-22 04:56:00,
2013-05-22 01:11:00,73.0,71.0,29.95,SE,144,0.0,1.0,92,0.00,,,0.00,0,weatherlink.com 1.10,2013-05-22 05:11:00,
2013-05-22 01:26:00,72.6,71.0,29.95,SE,144,0.0,0.0,93,0.00,,,0.00,0,weatherlink.com 1.10,2013-05-22 05:26:00,
2013-05-22 01:41:00,72.3,71.0,29.94,SE,144,0.0,0.0,94,0.00,,,0.00,0,weatherlink.com 1.10,2013-05-22 05:41:00,
2013-05-22 01:56:00,72.1,70.0,29.93,SE,144,0.0,0.0,94,0.00,,,0.00,0,weatherlink.com 1.10,2013-05-22 05:56:00,
2013-05-22 02:11:00,71.9,70.0,29.93,SE,144,0.0,0.0,94,0.00,,,0.00,0,weatherlink.com 1.10,2013-05-22 06:11:00,
2013-05-22 02:26:00,71.8,70.0,29.93,SE,144,0.0,0.0,94,0.00,,,0.00,0,weatherlink.com 1.10,2013-05-22 06:26:00,
2013-05-22 02:41:00,71.5,70.0,29.93,SE,144,0.0,0.0,94,0.00,,,0.00,0,weatherlink.com 1.10,2013-05-22 06:41:00,
2013-05-22 02:56:00,71.3,70.0,29.93,SE,144,0.0,0.0,95,0.00,,,0.00,0,weatherlink.com 1.10,2013-05-22 06:56:00,
2013-05-22 03:11:00,71.1,70.0,29.92,SE,144,0.0,0.0,95,0.00,,,0.00,0,weatherlink.com 1.10,2013-05-22 07:11:00,
2013-05-22 03:26:00,70.9,70.0,29.93,SE,144,0.0,0.0,95,0.00,,,0.00,0,weatherlink.com 1.10,2013-05-22 07:26:00,
2013-05-22 03:41:00,70.8,69.0,29.92,SE,144,0.0,0.0,95,0.00,,,0.00,0,weatherlink.com 1.10,2013-05-22 07:41:00,
2013-05-22 03:56:00,70.7,70.0,29.92,SE,144,0.0,0.0,96,0.00,,,0.00,0,weatherlink.com 1.10,2013-05-22 07:56:00,
2013-05-22 04:11:00,70.5,69.0,29.92,SE,144,0.0,0.0,96,0.00,,,0.00,0,weatherlink.com 1.10,2013-05-22 08:11:00,
2013-05-22 04:26:00,70.5,69.0,29.93,SE,144,0.0,0.0,96,0.00,,,0.00,0,weatherlink.com 1.10,2013-05-22 08:26:00,
2013-05-22 04:41:00,70.4,69.0,29.93,SE,144,0.0,0.0,96,0.00,,,0.00,0,weatherlink.com 1.10,2013-05-22 08:41:00,
2013-05-22 04:56:00,70.6,70.0,29.93,SE,144,0.0,0.0,97,0.00,,,0.00,0,weatherlink.com 1.10,2013-05-22 08:56:00,
2013-05-22 05:11:00,70.8,70.0,29.92,SE,144,0.0,0.0,97,0.00,,,0.00,0,weatherlink.com 1.10,2013-05-22 09:11:00,
2013-05-22 05:26:00,71.0,70.0,29.92,SE,144,0.0,0.0,97,0.00,,,0.00,0,weatherlink.com 1.10,2013-05-22 09:26:00,
2013-05-22 05:41:00,71.1,70.0,29.92,SE,144,0.0,0.0,97,0.00,,,0.00,0,weatherlink.com 1.10,2013-05-22 09:41:00,
2013-05-22 05:56:00,71.2,70.0,29.92,SE,144,0.0,0.0,97,0.00,,,0.00,0,weatherlink.com 1.10,2013-05-22 09:56:00,
2013-05-22 06:11:00,71.2,70.0,29.92,SE,144,0.0,0.0,97,0.00,,,0.00,0,weatherlink.com 1.10,2013-05-22 10:11:00,
2013-05-22 06:26:00,71.1,70.0,29.93,SE,144,0.0,0.0,97,0.00,,,0.00,0,weatherlink.com 1.10,2013-05-22 10:26:00,
2013-05-22 06:41:00,71.3,70.0,29.93,SE,144,0.0,0.0,97,0.00,,,0.00,5,weatherlink.com 1.10,2013-05-22 10:41:00,
2013-05-22 06:56:00,72.0,71.0,29.94,SSE,155,1.0,4.0,98,0.00,,,0.00,12,weatherlink.com 1.10,2013-05-22 10:56:00,
2013-05-22 07:11:00,72.8,72.0,29.94,SSE,149,0.0,5.0,97,0.00,,,0.00,21,weatherlink.com 1.10,2013-05-22 11:11:00,
2013-05-22 07:26:00,73.7,72.0,29.93,SE,138,0.0,4.0,94,0.00,,,0.00,30,weatherlink.com 1.10,2013-05-22 11:26:00,
2013-05-22 07:41:00,74.7,72.0,29.94,SSE,156,0.0,4.0,92,0.00,,,0.00,42,weatherlink.com 1.10,2013-05-22 11:41:00,
2013-05-22 07:56:00,75.4,73.0,29.94,SE,141,0.0,3.0,91,0.00,,,0.00,44,weatherlink.com 1.10,2013-05-22 11:56:00,
2013-05-22 08:11:00,76.4,73.0,29.94,SSE,150,0.0,3.0,89,0.00,,,0.00,63,weatherlink.com 1.10,2013-05-22 12:11:00,
2013-05-22 08:26:00,77.5,74.0,29.94,SSE,148,0.0,1.0,88,0.00,,,0.00,274,weatherlink.com 1.10,2013-05-22 12:26:00,
2013-05-22 08:41:00,78.8,74.0,29.94,SSE,148,0.0,2.0,85,0.00,,,0.00,139,weatherlink.com 1.10,2013-05-22 12:41:00,
2013-05-22 08:57:00,79.5,74.0,29.95,SE,137,1.0,3.0,82,0.00,,,0.00,221,weatherlink.com 1.10,2013-05-22 12:57:00,
2013-05-22 09:12:00,79.9,74.0,29.95,SE,146,0.0,5.0,82,0.00,,,0.00,169,weatherlink.com 1.10,2013-05-22 13:12:00,
2013-05-22 09:27:00,80.2,74.0,29.95,SSE,150,0.0,5.0,81,0.00,,,0.00,230,weatherlink.com 1.10,2013-05-22 13:27:00,
2013-05-22 09:42:00,80.8,75.0,29.95,SSE,150,7.0,7.0,81,0.00,,,0.00,264,weatherlink.com 1.10,2013-05-22 13:42:00,
2013-05-22 09:57:00,80.9,73.0,29.96,SSE,149,0.0,6.0,78,0.00,,,0.00,308,weatherlink.com 1.10,2013-05-22 13:57:00,
2013-05-22 10:12:00,81.0,74.0,29.97,SSE,156,2.0,6.0,78,0.00,,,0.00,218,weatherlink.com 1.10,2013-05-22 14:12:00,
2013-05-22 10:27:00,81.5,73.0,29.97,SE,137,6.0,8.0,76,0.00,,,0.00,308,weatherlink.com 1.10,2013-05-22 14:27:00,
2013-05-22 10:42:00,82.2,73.0,29.97,SSE,159,3.0,8.0,73,0.00,,,0.00,497,weatherlink.com 1.10,2013-05-22 14:42:00,
2013-05-22 10:57:00,82.3,74.0,29.96,East,101,0.0,11.0,76,0.00,,,0.00,278,weatherlink.com 1.10,2013-05-22 14:57:00,
2013-05-22 11:12:00,82.4,74.0,29.96,SSE,163,1.0,8.0,75,0.00,,,0.00,167,weatherlink.com 1.10,2013-05-22 15:12:00,
2013-05-22 11:27:00,82.7,73.0,29.97,SE,146,3.0,7.0,73,0.00,,,0.00,158,weatherlink.com 1.10,2013-05-22 15:27:00,
2013-05-22 11:42:00,82.9,73.0,29.96,SSE,166,3.0,9.0,73,0.00,,,0.00,322,weatherlink.com 1.10,2013-05-22 15:42:00,
2013-05-22 11:57:00,83.1,73.0,29.96,SE,146,0.0,5.0,72,0.00,,,0.00,290,weatherlink.com 1.10,2013-05-22 15:57:00,
2013-05-22 12:12:00,82.5,73.0,29.95,SSE,165,0.0,4.0,74,0.00,,,0.00,411,weatherlink.com 1.10,2013-05-22 16:12:00,
2013-05-22 12:42:00,83.8,73.0,29.94,SE,131,0.0,3.0,70,0.00,,,0.00,949,weatherlink.com 1.10,2013-05-22 16:42:00,
2013-05-22 12:57:00,84.7,73.0,29.93,SSE,157,0.0,4.0,69,0.00,,,0.00,461,weatherlink.com 1.10,2013-05-22 16:57:00,
2013-05-22 13:12:00,85.2,74.0,29.93,NE,55,2.0,3.0,68,0.00,,,0.00,406,weatherlink.com 1.10,2013-05-22 17:12:00,
2013-05-22 13:27:00,85.9,74.0,29.93,ESE,118,2.0,3.0,67,0.00,,,0.00,422,weatherlink.com 1.10,2013-05-22 17:27:00,
2013-05-22 13:42:00,85.3,73.0,29.93,ENE,69,0.0,4.0,66,0.00,,,0.00,72,weatherlink.com 1.10,2013-05-22 17:42:00,
2013-05-22 13:57:00,84.2,72.0,29.93,NE,35,1.0,3.0,66,0.00,,,0.00,70,weatherlink.com 1.10,2013-05-22 17:57:00,
2013-05-22 14:12:00,82.5,73.0,29.93,SE,135,1.0,2.0,72,0.00,,,0.00,128,weatherlink.com 1.10,2013-05-22 18:12:00,
2013-05-22 14:27:00,81.7,73.0,29.93,SSE,148,2.0,4.0,75,0.00,,,0.00,181,weatherlink.com 1.10,2013-05-22 18:27:00,
2013-05-22 14:42:00,82.4,74.0,29.92,SE,134,2.0,5.0,76,0.00,,,0.00,1014,weatherlink.com 1.10,2013-05-22 18:42:00,
2013-05-22 14:57:00,83.6,74.0,29.91,South,173,0.0,8.0,73,0.00,,,0.00,610,weatherlink.com 1.10,2013-05-22 18:57:00,
2013-05-22 15:12:00,85.0,75.0,29.92,SSE,149,2.0,6.0,72,0.00,,,0.00,1016,weatherlink.com 1.10,2013-05-22 19:12:00,
2013-05-22 15:27:00,83.8,76.0,29.92,South,171,3.0,9.0,76,0.00,,,0.00,1042,weatherlink.com 1.10,2013-05-22 19:27:00,
2013-05-22 15:42:00,84.1,75.0,29.92,South,182,4.0,12.0,73,0.00,,,0.00,805,weatherlink.com 1.10,2013-05-22 19:42:00,
2013-05-22 15:57:00,78.9,71.0,29.93,SSW,198,3.0,6.0,76,0.00,,,0.00,302,weatherlink.com 1.10,2013-05-22 19:57:00,
2013-05-22 16:12:00,78.5,70.0,29.91,South,183,3.0,6.0,75,0.00,,,0.00,188,weatherlink.com 1.10,2013-05-22 20:12:00,
2013-05-22 16:27:00,78.3,70.0,29.91,SE,138,3.0,6.0,75,0.00,,,0.00,127,weatherlink.com 1.10,2013-05-22 20:27:00,
2013-05-22 16:42:00,77.5,69.0,29.92,East,93,0.0,3.0,76,0.00,,,0.00,81,weatherlink.com 1.10,2013-05-22 20:42:00,
2013-05-22 16:57:00,77.0,68.0,29.91,NNE,13,0.0,4.0,74,0.00,,,0.00,58,weatherlink.com 1.10,2013-05-22 20:57:00,
2013-05-22 17:12:00,76.6,68.0,29.91,ENE,70,0.0,2.0,75,0.00,,,0.00,40,weatherlink.com 1.10,2013-05-22 21:12:00,
2013-05-22 17:27:00,76.4,68.0,29.93,ENE,69,0.0,2.0,76,0.00,,,0.00,39,weatherlink.com 1.10,2013-05-22 21:27:00,
2013-05-22 17:42:00,76.3,69.0,29.93,North,5,1.0,3.0,79,0.00,,,0.00,16,weatherlink.com 1.10,2013-05-22 21:42:00,
2013-05-22 17:57:00,75.4,71.0,29.93,North,5,0.0,2.0,85,0.01,,,0.01,19,weatherlink.com 1.10,2013-05-22 21:57:00,
2013-05-22 18:12:00,74.6,71.0,29.93,North,5,0.0,1.0,88,0.02,,,0.02,35,weatherlink.com 1.10,2013-05-22 22:12:00,
2013-05-22 18:27:00,74.4,71.0,29.92,NE,47,0.0,1.0,90,0.02,,,0.02,62,weatherlink.com 1.10,2013-05-22 22:27:00,
2013-05-22 18:42:00,74.2,71.0,29.92,NE,47,0.0,1.0,89,0.02,,,0.02,77,weatherlink.com 1.10,2013-05-22 22:42:00,
2013-05-22 18:57:00,74.6,72.0,29.92,SE,124,0.0,2.0,90,0.01,,,0.02,72,weatherlink.com 1.10,2013-05-22 22:57:00,
2013-05-22 19:12:00,75.0,72.0,29.92,SE,124,0.0,1.0,89,0.00,,,0.02,37,weatherlink.com 1.10,2013-05-22 23:12:00,
2013-05-22 19:27:00,75.2,71.0,29.91,SE,132,0.0,1.0,87,0.00,,,0.02,28,weatherlink.com 1.10,2013-05-22 23:27:00,
2013-05-22 19:42:00,75.2,71.0,29.91,SE,132,0.0,0.0,87,0.00,,,0.02,18,weatherlink.com 1.10,2013-05-22 23:42:00,
2013-05-22 19:57:00,75.0,71.0,29.93,SE,132,0.0,0.0,86,0.00,,,0.02,7,weatherlink.com 1.10,2013-05-22 23:57:00,
2013-05-22 20:12:00,74.9,71.0,29.93,SE,132,0.0,0.0,88,0.00,,,0.02,0,weatherlink.com 1.10,2013-05-23 00:12:00,
2013-05-22 20:27:00,74.6,71.0,29.93,SE,132,0.0,0.0,89,0.00,,,0.02,0,weatherlink.com 1.10,2013-05-23 00:27:00,
2013-05-22 20:42:00,74.3,71.0,29.93,SE,132,0.0,0.0,90,0.00,,,0.02,0,weatherlink.com 1.10,2013-05-23 00:42:00,
2013-05-22 20:57:00,74.0,71.0,29.92,SE,132,0.0,0.0,91,0.00,,,0.02,0,weatherlink.com 1.10,2013-05-23 00:57:00,
2013-05-22 21:12:00,73.9,72.0,29.93,SE,132,0.0,0.0,92,0.00,,,0.02,0,weatherlink.com 1.10,2013-05-23 01:12:00,
2013-05-22 21:27:00,73.7,72.0,29.94,SE,132,0.0,0.0,93,0.00,,,0.02,0,weatherlink.com 1.10,2013-05-23 01:27:00,
2013-05-22 21:42:00,73.6,72.0,29.95,SE,132,0.0,0.0,93,0.00,,,0.02,0,weatherlink.com 1.10,2013-05-23 01:42:00,
2013-05-22 21:57:00,73.3,72.0,29.95,SE,132,0.0,0.0,94,0.00,,,0.02,0,weatherlink.com 1.10,2013-05-23 01:57:00,
2013-05-22 22:12:00,73.1,71.0,29.95,SE,132,0.0,0.0,94,0.00,,,0.02,0,weatherlink.com 1.10,2013-05-23 02:12:00,
2013-05-22 22:27:00,73.1,72.0,29.95,SE,132,0.0,0.0,95,0.00,,,0.02,0,weatherlink.com 1.10,2013-05-23 02:27:00,
2013-05-22 22:42:00,73.1,72.0,29.95,SE,132,0.0,0.0,95,0.00,,,0.02,0,weatherlink.com 1.10,2013-05-23 02:42:00,
2013-05-22 22:57:00,73.0,72.0,29.96,SE,132,0.0,0.0,95,0.00,,,0.02,0,weatherlink.com 1.10,2013-05-23 02:57:00,
2013-05-22 23:12:00,72.9,71.0,29.96,SE,132,0.0,0.0,95,0.00,,,0.02,0,weatherlink.com 1.10,2013-05-23 03:12:00,
2013-05-22 23:27:00,73.0,72.0,29.96,SE,132,0.0,0.0,96,0.00,,,0.02,0,weatherlink.com 1.10,2013-05-23 03:27:00,
2013-05-22 23:43:00,73.0,72.0,29.96,SE,132,0.0,0.0,96,0.00,,,0.02,0,weatherlink.com 1.10,2013-05-23 03:43:00,
2013-05-22 23:58:00,72.9,72.0,29.96,SE,132,0.0,0.0,96,0.00,,,0.02,0,weatherlink.com 1.10,2013-05-23 03:58:00,